Time;durP1;ratioP1;P1;durP2;ratioP2;P2;SDS_P1;SDS_P2;PMS_P1;PMS_P2;Temp;Humidity;BMP_temperature;BMP_pressure;BME280_temperature;BME280_humidity;BME280_pressure;Samples;Min_cycle;Max_cycle;Signal;HPM_P1;HPM_P2
2021/04/08 00:01:15;;;;;;;6.00;3.77;;;3.10;99.90;;;;;;5048561;28;20271;-43
2021/04/08 00:03:41;;;;;;;9.83;4.63;;;2.90;99.90;;;;;;5047067;28;20564;-41
2021/04/08 00:06:07;;;;;;;8.10;4.93;;;3.00;99.90;;;;;;5047823;28;20399;-42
2021/04/08 00:08:33;;;;;;;5.20;3.57;;;2.90;99.90;;;;;;5054187;28;20548;-42
2021/04/08 00:10:58;;;;;;;9.07;3.80;;;3.00;99.90;;;;;;5063504;28;20186;-42
2021/04/08 00:13:24;;;;;;;6.20;3.57;;;2.90;99.90;;;;;;5048073;28;20273;-41
2021/04/08 00:15:50;;;;;;;5.90;4.10;;;2.90;99.90;;;;;;5056805;28;20724;-41
2021/04/08 00:18:16;;;;;;;8.43;4.60;;;2.90;99.90;;;;;;5050167;28;20871;-42
2021/04/08 00:20:42;;;;;;;9.77;4.23;;;2.90;99.90;;;;;;5047162;28;20193;-45
2021/04/08 00:23:08;;;;;;;6.73;4.17;;;3.00;99.90;;;;;;5053212;28;20701;-42
2021/04/08 00:25:36;;;;;;;6.53;3.63;;;3.00;99.90;;;;;;5063942;28;20880;-46
2021/04/08 00:28:02;;;;;;;9.23;4.07;;;2.80;99.90;;;;;;5048497;28;20197;-45
2021/04/08 00:30:28;;;;;;;7.30;4.10;;;2.70;99.90;;;;;;5051275;28;20402;-45
2021/04/08 00:32:54;;;;;;;12.13;6.30;;;2.90;99.90;;;;;;5048789;28;20463;-42
2021/04/08 00:35:19;;;;;;;12.77;5.90;;;2.80;99.90;;;;;;5047723;28;20200;-42
2021/04/08 00:37:45;;;;;;;10.43;6.07;;;3.20;99.90;;;;;;5051434;28;20227;-42
2021/04/08 00:40:15;;;;;;;9.47;5.90;;;3.00;99.90;;;;;;5059954;28;20213;-44
2021/04/08 00:42:42;;;;;;;11.50;6.40;;;2.90;99.90;;;;;;5049877;28;20196;-43
2021/04/08 00:45:09;;;;;;;9.40;7.10;;;2.80;99.90;;;;;;5047753;28;20484;-43
2021/04/08 00:47:35;;;;;;;8.80;6.03;;;3.10;99.90;;;;;;5053292;28;20851;-41
2021/04/08 00:50:03;;;;;;;9.63;6.83;;;2.90;99.90;;;;;;5066347;28;20524;-42
2021/04/08 00:52:30;;;;;;;8.30;5.77;;;3.00;99.90;;;;;;5065545;28;20283;-41
2021/04/08 00:54:55;;;;;;;11.27;6.00;;;2.90;99.90;;;;;;5054679;28;20399;-45
2021/04/08 00:57:21;;;;;;;10.80;6.57;;;2.90;99.90;;;;;;5051516;28;20605;-44
2021/04/08 00:59:47;;;;;;;10.23;5.63;;;2.80;99.90;;;;;;5046469;28;20683;-41
2021/04/08 01:02:13;;;;;;;14.83;6.37;;;2.80;99.90;;;;;;5056018;28;20686;-45
2021/04/08 01:04:39;;;;;;;13.80;5.77;;;2.90;99.90;;;;;;5046577;28;20964;-42
2021/04/08 01:07:05;;;;;;;7.53;4.80;;;2.90;99.90;;;;;;5046476;28;20193;-42
2021/04/08 01:09:30;;;;;;;12.93;5.27;;;2.90;99.90;;;;;;5053031;28;20182;-43
2021/04/08 01:11:56;;;;;;;8.20;5.00;;;2.80;99.90;;;;;;5052571;28;20455;-42
2021/04/08 01:14:22;;;;;;;10.93;6.27;;;2.70;99.90;;;;;;5045442;28;20587;-42
2021/04/08 01:16:59;;;;;;;8.63;5.10;;;2.80;99.90;;;;;;5053041;28;20225;-43
2021/04/08 01:19:43;;;;;;;11.43;5.40;;;2.70;99.90;;;;;;5046181;28;20437;-42
2021/04/08 01:22:33;;;;;;;6.43;4.90;;;3.00;99.90;;;;;;5054734;28;20415;-42
2021/04/08 01:25:33;;;;;;;11.40;5.00;;;2.90;99.90;;;;;;5054959;28;20884;-42
2021/04/08 01:28:07;;;;;;;12.97;5.13;;;2.90;99.90;;;;;;5061141;28;20746;-41
2021/04/08 01:30:45;;;;;;;11.87;5.47;;;2.80;99.90;;;;;;5045953;28;20423;-42
2021/04/08 01:33:24;;;;;;;7.67;5.23;;;2.80;99.90;;;;;;5045735;28;20434;-41
2021/04/08 01:35:52;;;;;;;9.70;5.97;;;2.90;99.90;;;;;;5046064;28;21040;-42
2021/04/08 01:38:31;;;;;;;10.07;5.13;;;3.00;99.90;;;;;;5047358;28;20527;-41
2021/04/08 01:41:00;;;;;;;6.30;4.60;;;2.70;99.90;;;;;;5060449;28;20418;-44
2021/04/08 01:43:30;;;;;;;8.43;5.30;;;2.70;99.90;;;;;;5053226;28;20453;-41
2021/04/08 01:45:58;;;;;;;6.10;4.30;;;2.80;99.90;;;;;;5046075;28;20428;-43
2021/04/08 01:48:26;;;;;;;6.17;4.80;;;2.80;99.90;;;;;;5045911;28;20456;-41
2021/04/08 01:50:58;;;;;;;8.30;4.70;;;2.80;99.90;;;;;;5044092;28;20583;-41
2021/04/08 01:53:25;;;;;;;9.30;5.20;;;2.80;99.90;;;;;;5046737;28;20836;-42
2021/04/08 01:55:54;;;;;;;7.67;5.40;;;2.80;99.90;;;;;;5058673;28;20785;-42
2021/04/08 01:58:21;;;;;;;13.93;5.37;;;2.60;99.90;;;;;;5050508;28;20467;-41
2021/04/08 02:00:48;;;;;;;11.17;6.03;;;2.50;99.90;;;;;;5045185;28;20434;-43
2021/04/08 02:03:15;;;;;;;11.67;5.57;;;2.50;99.90;;;;;;5050794;28;20398;-42
2021/04/08 02:05:42;;;;;;;10.20;6.23;;;2.40;99.90;;;;;;5046222;28;20519;-41
2021/04/08 02:08:09;;;;;;;7.57;4.80;;;2.80;99.90;;;;;;5046032;28;20406;-41
2021/04/08 02:10:37;;;;;;;8.90;4.97;;;2.70;99.90;;;;;;5053789;28;20401;-41
2021/04/08 02:13:04;;;;;;;10.23;5.70;;;2.70;99.90;;;;;;5055547;28;20429;-44
2021/04/08 02:15:31;;;;;;;8.90;5.37;;;2.40;99.90;;;;;;5045804;28;20428;-45
2021/04/08 02:17:59;;;;;;;11.20;5.73;;;2.60;99.90;;;;;;5046735;28;20477;-42
2021/04/08 02:20:31;;;;;;;11.17;5.87;;;2.70;99.90;;;;;;5045318;28;20434;-41
2021/04/08 02:23:07;;;;;;;9.80;6.03;;;2.50;99.90;;;;;;5045346;28;20414;-44
2021/04/08 02:25:36;;;;;;;10.20;5.63;;;2.50;99.90;;;;;;5050970;28;20839;-41
2021/04/08 02:28:07;;;;;;;8.67;6.00;;;2.50;99.90;;;;;;5047031;28;20421;-43
2021/04/08 02:30:45;;;;;;;12.40;6.00;;;2.50;99.90;;;;;;5045134;28;20428;-43
2021/04/08 02:33:18;;;;;;;8.87;5.63;;;2.60;99.90;;;;;;5055746;28;20625;-41
2021/04/08 02:35:43;;;;;;;11.53;5.53;;;2.60;99.90;;;;;;5045967;28;20831;-43
2021/04/08 02:38:09;;;;;;;8.20;5.87;;;2.50;99.90;;;;;;5044382;28;20511;-44
2021/04/08 02:40:35;;;;;;;13.73;6.27;;;2.50;99.90;;;;;;5055388;28;20216;-44
2021/04/08 02:43:02;;;;;;;10.50;6.37;;;2.40;99.90;;;;;;5057249;28;20269;-41
2021/04/08 02:45:27;;;;;;;12.03;6.77;;;2.40;99.90;;;;;;5045617;28;20229;-43
2021/04/08 02:47:53;;;;;;;12.03;5.60;;;2.40;99.90;;;;;;5050174;28;20434;-43
2021/04/08 02:50:19;;;;;;;14.23;6.77;;;2.60;99.90;;;;;;5044426;28;20212;-41
2021/04/08 02:53:09;;;;;;;11.17;6.43;;;2.20;99.90;;;;;;5045239;28;20251;-44
2021/04/08 02:55:42;;;;;;;10.97;5.63;;;2.40;99.90;;;;;;5056878;28;20185;-41
2021/04/08 02:58:11;;;;;;;10.80;5.43;;;2.60;99.90;;;;;;5057720;28;20520;-41
2021/04/08 03:00:46;;;;;;;9.40;6.60;;;2.40;99.90;;;;;;5044436;28;20402;-41
2021/04/08 03:03:15;;;;;;;10.80;5.97;;;2.50;99.90;;;;;;5058616;28;20422;-44
2021/04/08 03:05:43;;;;;;;9.23;5.60;;;2.30;99.90;;;;;;5045326;28;20426;-43
2021/04/08 03:08:12;;;;;;;10.87;6.03;;;2.50;99.90;;;;;;5045114;28;20735;-41
2021/04/08 03:10:39;;;;;;;9.87;5.90;;;2.50;99.90;;;;;;5050965;28;20434;-41
2021/04/08 03:13:07;;;;;;;10.87;6.60;;;2.40;99.90;;;;;;5056416;28;20958;-41
2021/04/08 03:15:37;;;;;;;12.13;6.00;;;2.40;99.90;;;;;;5046831;28;20995;-41
2021/04/08 03:18:13;;;;;;;9.13;5.43;;;2.50;99.90;;;;;;5057803;28;20471;-43
2021/04/08 03:20:40;;;;;;;11.30;6.20;;;2.20;99.90;;;;;;5048296;28;20420;-41
2021/04/08 03:23:09;;;;;;;10.50;5.83;;;2.60;99.90;;;;;;5048829;28;20423;-41
2021/04/08 03:25:36;;;;;;;8.60;5.33;;;2.40;99.90;;;;;;5058762;28;20439;-41
2021/04/08 03:28:03;;;;;;;12.57;5.97;;;2.40;99.90;;;;;;5059792;28;20438;-43
2021/04/08 03:30:29;;;;;;;12.73;5.37;;;2.50;99.90;;;;;;5054526;28;20449;-42
2021/04/08 03:32:56;;;;;;;13.63;6.17;;;2.50;99.90;;;;;;5052720;28;20850;-43
2021/04/08 03:35:23;;;;;;;10.40;6.43;;;2.30;99.90;;;;;;5048569;28;20924;-42
2021/04/08 03:37:49;;;;;;;11.83;5.60;;;2.30;99.90;;;;;;5049004;28;20438;-44
2021/04/08 03:40:15;;;;;;;13.07;5.27;;;2.30;99.90;;;;;;5058682;28;20475;-45
2021/04/08 03:42:41;;;;;;;11.07;6.20;;;2.40;99.90;;;;;;5063538;28;20406;-42
2021/04/08 03:45:11;;;;;;;10.30;6.13;;;2.40;99.90;;;;;;5057345;28;20391;-41
2021/04/08 03:47:40;;;;;;;12.17;6.37;;;2.30;99.90;;;;;;5054095;28;20394;-43
2021/04/08 03:50:08;;;;;;;12.30;6.57;;;2.40;99.90;;;;;;5054923;28;20478;-43
2021/04/08 03:52:35;;;;;;;9.23;5.47;;;2.20;99.90;;;;;;5048201;28;20449;-41
2021/04/08 03:55:03;;;;;;;9.20;6.20;;;2.20;99.90;;;;;;5047030;28;20399;-42
2021/04/08 03:57:29;;;;;;;8.40;5.40;;;2.30;99.90;;;;;;5048747;28;20838;-43
2021/04/08 03:59:56;;;;;;;10.07;5.40;;;2.40;99.90;;;;;;5049537;28;20499;-41
2021/04/08 04:02:24;;;;;;;11.07;6.03;;;2.30;99.90;;;;;;5050463;28;20413;-42
2021/04/08 04:04:50;;;;;;;15.17;5.80;;;2.30;99.90;;;;;;5052607;28;20430;-43
2021/04/08 04:07:17;;;;;;;7.80;5.10;;;2.40;99.90;;;;;;5047947;28;20425;-41
2021/04/08 04:09:43;;;;;;;14.83;6.23;;;2.40;99.90;;;;;;5047289;28;20435;-41
2021/04/08 04:12:14;;;;;;;9.17;4.90;;;2.50;99.90;;;;;;5054676;28;20437;-42
2021/04/08 04:14:41;;;;;;;11.67;5.60;;;2.20;99.90;;;;;;5065083;28;20458;-41
2021/04/08 04:17:27;;;;;;;10.20;4.93;;;2.40;99.90;;;;;;5048179;28;20407;-41
2021/04/08 04:19:54;;;;;;;8.83;4.90;;;2.20;99.90;;;;;;5065392;28;20394;-42
2021/04/08 04:22:20;;;;;;;8.03;4.90;;;2.30;99.90;;;;;;5068260;28;20412;-42
2021/04/08 04:24:46;;;;;;;7.87;4.90;;;2.40;99.90;;;;;;5063580;28;20964;-41
2021/04/08 04:27:12;;;;;;;11.63;5.70;;;2.30;99.90;;;;;;5059466;28;20739;-43
2021/04/08 04:29:38;;;;;;;9.43;5.00;;;2.50;99.90;;;;;;5053690;28;20945;-42
2021/04/08 04:32:04;;;;;;;12.90;5.57;;;2.50;99.90;;;;;;5047292;28;20446;-41
2021/04/08 04:34:30;;;;;;;8.57;4.60;;;2.60;99.90;;;;;;5058843;28;20438;-40
2021/04/08 04:36:56;;;;;;;9.60;5.80;;;2.30;99.90;;;;;;5047466;28;20420;-42
2021/04/08 04:39:21;;;;;;;8.30;5.13;;;2.20;99.90;;;;;;5045814;28;20289;-42
2021/04/08 04:41:47;;;;;;;9.53;5.30;;;2.20;99.90;;;;;;5057060;28;20185;-41
2021/04/08 04:44:13;;;;;;;8.23;5.13;;;2.50;99.90;;;;;;5062286;28;20268;-41
2021/04/08 04:46:39;;;;;;;9.00;5.20;;;2.30;99.90;;;;;;5061579;28;20574;-41
2021/04/08 04:49:07;;;;;;;7.73;5.33;;;2.30;99.90;;;;;;5056014;28;20185;-42
2021/04/08 04:51:33;;;;;;;9.03;5.13;;;2.50;99.90;;;;;;5047195;28;20481;-41
2021/04/08 04:53:59;;;;;;;7.00;4.70;;;2.40;99.90;;;;;;5047118;28;20189;-41
2021/04/08 04:56:25;;;;;;;7.60;4.57;;;2.60;99.90;;;;;;5055587;28;20970;-41
2021/04/08 04:58:50;;;;;;;8.33;5.20;;;2.50;99.90;;;;;;5063645;28;20395;-41
2021/04/08 05:01:16;;;;;;;7.90;4.70;;;2.50;99.90;;;;;;5054618;28;20424;-45
2021/04/08 05:03:41;;;;;;;7.87;4.63;;;2.60;99.90;;;;;;5050402;28;20502;-41
2021/04/08 05:06:07;;;;;;;10.53;4.50;;;2.70;99.90;;;;;;5046629;28;20717;-41
2021/04/08 05:08:33;;;;;;;7.80;4.43;;;2.60;99.90;;;;;;5046865;28;20276;-41
2021/04/08 05:10:59;;;;;;;8.90;4.67;;;2.70;99.90;;;;;;5050127;28;20193;-41
2021/04/08 05:13:24;;;;;;;11.73;5.47;;;2.80;99.90;;;;;;5059736;28;20186;-43
2021/04/08 05:15:50;;;;;;;11.30;4.30;;;2.70;99.90;;;;;;5052813;28;20750;-44
2021/04/08 05:18:16;;;;;;;8.07;4.57;;;2.60;99.90;;;;;;5050577;28;20485;-41
2021/04/08 05:20:42;;;;;;;8.00;4.50;;;3.00;99.90;;;;;;5054252;28;20197;-42
2021/04/08 05:23:08;;;;;;;15.23;4.73;;;2.80;99.90;;;;;;5046834;28;20190;-41
2021/04/08 05:25:34;;;;;;;7.50;4.00;;;2.70;99.90;;;;;;5046215;28;20428;-41
2021/04/08 05:28:00;;;;;;;7.13;5.07;;;2.70;99.90;;;;;;5058320;28;20421;-42
2021/04/08 05:30:26;;;;;;;7.97;5.67;;;2.80;99.90;;;;;;5051256;28;20509;-41
2021/04/08 05:32:51;;;;;;;7.90;4.97;;;3.00;99.90;;;;;;5045933;28;20216;-42
2021/04/08 05:35:18;;;;;;;8.57;4.23;;;3.10;99.90;;;;;;5053977;28;20452;-40
2021/04/08 05:37:44;;;;;;;8.67;4.60;;;3.00;99.90;;;;;;5045492;28;20205;-42
2021/04/08 05:40:10;;;;;;;6.57;4.23;;;2.80;99.90;;;;;;5045201;28;20431;-44
2021/04/08 05:42:35;;;;;;;7.80;4.43;;;3.00;99.90;;;;;;5054782;28;20664;-44
2021/04/08 05:45:02;;;;;;;6.83;5.37;;;2.80;99.90;;;;;;5065131;28;20393;-45
2021/04/08 05:47:27;;;;;;;12.60;4.20;;;2.90;99.90;;;;;;5052220;28;20185;-42
2021/04/08 05:49:53;;;;;;;7.37;4.43;;;2.90;99.90;;;;;;5056392;28;20482;-46
2021/04/08 05:52:19;;;;;;;7.03;4.77;;;2.90;99.90;;;;;;5058293;28;20189;-42
2021/04/08 05:54:44;;;;;;;10.10;3.80;;;3.00;99.90;;;;;;5054636;28;20264;-41
2021/04/08 05:57:10;;;;;;;14.07;4.27;;;2.80;99.90;;;;;;5049197;28;20799;-42
2021/04/08 05:59:36;;;;;;;9.97;4.40;;;2.80;99.90;;;;;;5054808;28;20344;-41
2021/04/08 06:02:02;;;;;;;13.93;4.83;;;2.90;99.90;;;;;;5056144;28;21018;-43
2021/04/08 06:04:27;;;;;;;9.70;5.13;;;3.00;99.90;;;;;;5052977;28;20264;-43
2021/04/08 06:06:53;;;;;;;10.37;4.63;;;3.20;99.90;;;;;;5054529;28;20189;-43
2021/04/08 06:09:19;;;;;;;7.57;4.17;;;3.10;99.90;;;;;;5044911;28;20198;-42
2021/04/08 06:11:44;;;;;;;8.60;4.00;;;3.30;99.90;;;;;;5054595;28;20268;-43
2021/04/08 06:14:10;;;;;;;7.70;3.40;;;3.00;99.90;;;;;;5051059;28;20664;-41
2021/04/08 06:16:36;;;;;;;7.50;4.10;;;3.30;99.90;;;;;;5056803;28;20257;-42
2021/04/08 06:19:02;;;;;;;7.33;4.03;;;3.10;99.90;;;;;;5060146;28;20459;-42
2021/04/08 06:21:28;;;;;;;8.00;3.90;;;3.10;99.90;;;;;;5052970;28;20662;-44
2021/04/08 06:23:53;;;;;;;5.60;4.13;;;3.20;99.90;;;;;;5053784;28;20544;-42
2021/04/08 06:26:19;;;;;;;8.80;4.30;;;3.40;99.90;;;;;;5055837;28;20201;-42
2021/04/08 06:28:45;;;;;;;5.60;3.93;;;3.40;99.90;;;;;;5062679;28;20999;-42
2021/04/08 06:31:11;;;;;;;10.10;4.10;;;3.30;99.90;;;;;;5046981;28;20712;-44
2021/04/08 06:33:37;;;;;;;8.00;4.60;;;3.40;99.90;;;;;;5048212;28;20198;-41
2021/04/08 06:36:03;;;;;;;7.10;4.10;;;3.50;99.90;;;;;;5048289;28;20196;-43
2021/04/08 06:38:28;;;;;;;11.80;4.70;;;3.30;99.90;;;;;;5045319;28;20679;-44
2021/04/08 06:40:54;;;;;;;8.47;4.87;;;3.40;99.90;;;;;;5048079;28;20406;-43
2021/04/08 06:43:20;;;;;;;8.87;4.97;;;3.50;99.90;;;;;;5055356;28;20320;-46
2021/04/08 06:45:49;;;;;;;7.53;4.97;;;3.60;99.90;;;;;;5055430;28;20178;-43
2021/04/08 06:48:22;;;;;;;8.63;4.67;;;3.70;99.90;;;;;;5045566;28;20201;-41
2021/04/08 06:50:52;;;;;;;11.07;6.00;;;3.70;99.90;;;;;;5059145;28;20431;-40
2021/04/08 06:53:18;;;;;;;10.60;6.13;;;3.80;99.90;;;;;;5049764;28;20416;-44
2021/04/08 06:55:47;;;;;;;9.60;6.23;;;3.80;99.90;;;;;;5049285;28;20402;-43
2021/04/08 06:58:13;;;;;;;11.40;5.90;;;3.50;99.90;;;;;;5054714;28;20433;-45
2021/04/08 07:00:39;;;;;;;11.83;6.07;;;3.70;99.90;;;;;;5056752;28;20391;-43
2021/04/08 07:03:07;;;;;;;10.70;6.07;;;3.70;99.90;;;;;;5047849;28;20438;-43
2021/04/08 07:05:33;;;;;;;11.33;6.73;;;3.80;99.90;;;;;;5049198;28;20182;-42
2021/04/08 07:07:58;;;;;;;12.43;6.63;;;3.80;99.90;;;;;;5049103;28;20395;-45
2021/04/08 07:10:24;;;;;;;14.47;6.70;;;3.90;99.90;;;;;;5048506;28;20664;-42
2021/04/08 07:12:54;;;;;;;9.10;6.77;;;3.90;99.90;;;;;;5050369;28;20639;-42
2021/04/08 07:15:21;;;;;;;8.80;7.47;;;4.10;99.90;;;;;;5059033;28;20420;-45
2021/04/08 07:17:46;;;;;;;20.13;8.47;;;4.30;99.90;;;;;;5049226;28;20960;-46
2021/04/08 07:20:12;;;;;;;9.40;7.87;;;4.30;99.90;;;;;;5061467;28;20424;-42
2021/04/08 07:22:38;;;;;;;13.27;8.50;;;4.20;99.90;;;;;;5048633;28;20186;-41
2021/04/08 07:25:21;;;;;;;18.33;8.63;;;4.40;99.90;;;;;;5049417;28;20181;-43
2021/04/08 07:27:47;;;;;;;11.97;8.03;;;4.50;99.90;;;;;;5056518;28;20201;-44
2021/04/08 07:30:17;;;;;;;19.67;8.43;;;4.60;99.90;;;;;;5058243;28;20512;-43
2021/04/08 07:32:43;;;;;;;10.63;7.93;;;4.60;99.90;;;;;;5048945;28;20676;-45
2021/04/08 07:35:17;;;;;;;10.67;8.67;;;4.70;99.90;;;;;;5055493;28;20422;-44
2021/04/08 07:37:54;;;;;;;13.50;9.47;;;5.00;99.90;;;;;;5050847;28;20442;-43
2021/04/08 07:40:25;;;;;;;13.67;9.70;;;5.00;99.90;;;;;;5048527;28;20523;-43
2021/04/08 07:42:51;;;;;;;13.27;8.50;;;5.20;99.90;;;;;;5057274;28;20427;-41
2021/04/08 07:45:30;;;;;;;11.37;8.47;;;5.20;99.90;;;;;;5058722;28;20940;-44
2021/04/08 07:48:01;;;;;;;14.20;10.10;;;5.30;99.90;;;;;;5057622;28;20423;-42
2021/04/08 07:50:28;;;;;;;12.47;10.23;;;5.40;99.90;;;;;;5058617;28;20779;-42
2021/04/08 07:52:53;;;;;;;14.20;10.37;;;5.30;99.90;;;;;;5054465;28;20416;-40
2021/04/08 07:55:30;;;;;;;15.17;9.97;;;5.50;99.90;;;;;;5052717;28;20427;-43
2021/04/08 07:57:55;;;;;;;12.83;9.53;;;5.40;99.90;;;;;;5056344;28;20678;-41
2021/04/08 08:00:23;;;;;;;12.80;9.37;;;5.90;99.90;;;;;;5061815;28;20405;-44
2021/04/08 08:02:49;;;;;;;13.87;9.00;;;5.80;99.90;;;;;;5050080;28;20251;-43
2021/04/08 08:05:27;;;;;;;12.07;8.67;;;6.00;99.90;;;;;;5056786;28;20781;-44
2021/04/08 08:08:16;;;;;;;12.83;8.67;;;5.90;99.90;;;;;;5050265;28;20420;-44
2021/04/08 08:10:57;;;;;;;9.43;8.30;;;5.80;99.90;;;;;;5055944;28;20933;-42
2021/04/08 08:13:34;;;;;;;11.03;8.10;;;5.80;99.90;;;;;;5056978;28;20435;-41
2021/04/08 08:16:02;;;;;;;10.17;7.17;;;6.00;99.90;;;;;;5062625;28;20438;-41
2021/04/08 08:18:32;;;;;;;13.10;8.53;;;6.30;99.90;;;;;;5048601;28;20856;-41
2021/04/08 08:21:08;;;;;;;10.90;8.83;;;6.20;99.90;;;;;;5054587;28;20477;-40
2021/04/08 08:23:39;;;;;;;10.37;6.40;;;6.40;99.90;;;;;;5051981;28;20462;-41
2021/04/08 08:26:49;;;;;;;8.73;7.10;;;6.60;99.90;;;;;;5052647;28;21007;-41
2021/04/08 08:29:25;;;;;;;6.93;6.10;;;6.90;99.90;;;;;;5051181;28;20466;-42
2021/04/08 08:31:51;;;;;;;10.97;6.60;;;7.10;99.90;;;;;;5064426;28;20481;-41
2021/04/08 08:34:35;;;;;;;8.40;5.90;;;6.80;99.90;;;;;;5055076;28;20433;-42
2021/04/08 08:37:08;;;;;;;9.80;6.00;;;6.80;99.90;;;;;;5047897;28;20436;-40
2021/04/08 08:39:34;;;;;;;8.37;6.40;;;6.90;99.90;;;;;;5047284;28;20533;-44
2021/04/08 08:42:03;;;;;;;7.47;6.30;;;6.80;99.90;;;;;;5047206;28;20764;-44
2021/04/08 08:44:30;;;;;;;8.23;6.03;;;7.00;99.90;;;;;;5055612;28;20428;-41
2021/04/08 08:47:19;;;;;;;8.77;6.37;;;6.80;99.90;;;;;;5057747;28;20444;-43
2021/04/08 08:49:58;;;;;;;10.30;8.00;;;6.80;99.90;;;;;;5060382;28;20447;-40
2021/04/08 08:52:32;;;;;;;6.77;6.07;;;7.00;99.90;;;;;;5061678;28;20422;-40
2021/04/08 08:54:58;;;;;;;12.13;6.73;;;6.80;99.90;;;;;;5048185;28;20764;-43
2021/04/08 08:57:26;;;;;;;7.17;6.27;;;6.90;99.90;;;;;;5061863;28;20445;-41
2021/04/08 08:59:52;;;;;;;6.90;6.17;;;7.10;99.90;;;;;;5057022;28;20470;-43
2021/04/08 09:02:18;;;;;;;9.47;4.37;;;7.10;99.90;;;;;;5061594;28;20810;-43
2021/04/08 09:04:44;;;;;;;8.20;5.60;;;7.40;99.90;;;;;;5047769;28;20791;-41
2021/04/08 09:07:13;;;;;;;6.10;4.60;;;7.30;99.90;;;;;;5054239;28;20428;-41
2021/04/08 09:09:46;;;;;;;9.47;6.13;;;7.50;99.70;;;;;;5053700;28;20662;-42
2021/04/08 09:12:17;;;;;;;8.33;4.97;;;7.60;99.90;;;;;;5046733;28;20416;-44
2021/04/08 09:14:48;;;;;;;6.20;5.60;;;7.70;99.90;;;;;;5060141;28;20427;-44
2021/04/08 09:17:42;;;;;;;5.77;4.10;;;8.00;99.10;;;;;;5059812;28;20472;-46
2021/04/08 09:20:19;;;;;;;6.00;4.33;;;7.80;98.40;;;;;;5057225;28;20420;-42
2021/04/08 09:23:03;;;;;;;4.80;4.17;;;7.90;97.80;;;;;;5056689;28;20910;-41
2021/04/08 09:25:30;;;;;;;7.87;4.10;;;7.90;97.00;;;;;;5049762;28;20804;-41
2021/04/08 09:28:16;;;;;;;7.10;4.40;;;7.80;95.30;;;;;;5059009;28;20435;-41
2021/04/08 09:33:44;;;;;;;4.13;3.30;;;7.80;95.10;;;;;;5045718;28;20474;-45
2021/04/08 09:36:19;;;;;;;3.03;2.73;;;7.80;94.30;;;;;;5047154;28;20427;-43
2021/04/08 09:38:45;;;;;;;6.47;3.40;;;8.00;94.10;;;;;;5054584;28;20463;-43
2021/04/08 09:41:11;;;;;;;4.40;2.97;;;8.20;92.70;;;;;;5045487;28;20415;-43
2021/04/08 09:43:37;;;;;;;3.27;2.80;;;8.20;92.40;;;;;;5047372;28;20660;-43
2021/04/08 09:46:13;;;;;;;5.87;3.07;;;8.40;91.80;;;;;;5058740;28;21230;-41
2021/04/08 09:48:46;;;;;;;5.50;2.77;;;8.30;91.40;;;;;;5048744;28;20428;-41
2021/04/08 09:51:32;;;;;;;4.07;2.40;;;8.70;92.00;;;;;;5049698;28;20498;-43
2021/04/08 09:54:01;;;;;;;2.90;2.00;;;8.40;90.10;;;;;;5048199;28;20946;-42
2021/04/08 09:56:48;;;;;;;4.70;2.33;;;8.10;90.60;;;;;;5046641;28;20428;-41
2021/04/08 09:59:16;;;;;;;3.23;2.50;;;7.90;89.70;;;;;;5050709;28;20839;-44
2021/04/08 10:01:42;;;;;;;3.30;2.60;;;7.80;90.70;;;;;;5056980;28;20840;-41
2021/04/08 10:04:15;;;;;;;5.00;2.20;;;7.80;89.00;;;;;;5058286;28;20930;-42
2021/04/08 10:06:43;;;;;;;4.60;3.07;;;7.80;88.60;;;;;;5049666;28;20415;-46
2021/04/08 10:09:11;;;;;;;4.70;3.43;;;7.80;90.20;;;;;;5045826;28;20523;-41
2021/04/08 10:11:37;;;;;;;3.10;2.80;;;7.70;89.60;;;;;;5045880;28;20452;-44
2021/04/08 10:14:23;;;;;;;4.17;3.77;;;8.20;90.20;;;;;;5047888;28;20567;-41
2021/04/08 10:17:07;;;;;;;4.13;2.90;;;8.30;89.40;;;;;;5051447;28;20727;-42
2021/04/08 10:19:35;;;;;;;4.00;2.60;;;8.20;85.80;;;;;;5045530;28;20468;-43
2021/04/08 10:22:01;;;;;;;4.57;3.07;;;8.20;86.40;;;;;;5053574;28;20423;-42
2021/04/08 10:24:34;;;;;;;3.60;2.83;;;8.60;86.10;;;;;;5049839;28;20424;-41
2021/04/08 10:27:00;;;;;;;3.63;3.23;;;8.40;84.60;;;;;;5044425;28;20786;-43
2021/04/08 10:29:33;;;;;;;4.07;3.63;;;8.40;83.50;;;;;;5045500;28;20543;-42
2021/04/08 10:31:59;;;;;;;3.50;3.13;;;8.30;83.20;;;;;;5051521;28;21001;-46
2021/04/08 10:34:40;;;;;;;5.17;3.97;;;8.30;86.80;;;;;;5044443;28;20713;-41
2021/04/08 10:37:07;;;;;;;4.70;4.03;;;7.90;86.80;;;;;;5052953;28;20506;-41
2021/04/08 10:39:35;;;;;;;6.00;3.57;;;7.60;85.10;;;;;;5045973;28;20547;-42
2021/04/08 10:42:11;;;;;;;5.37;4.53;;;7.60;86.10;;;;;;5045744;28;20448;-41
2021/04/08 10:44:39;;;;;;;8.03;4.33;;;7.40;85.60;;;;;;5052795;28;20423;-44
2021/04/08 10:47:10;;;;;;;4.13;3.73;;;7.60;86.20;;;;;;5058729;28;20419;-41
2021/04/08 10:49:50;;;;;;;4.40;3.83;;;7.80;85.60;;;;;;5054128;28;20797;-40
2021/04/08 10:52:18;;;;;;;8.57;4.10;;;8.30;85.00;;;;;;5065541;28;20685;-40
2021/04/08 10:54:47;;;;;;;4.23;3.93;;;8.40;85.60;;;;;;5054110;28;20432;-41
2021/04/08 10:57:15;;;;;;;5.53;4.83;;;8.50;82.30;;;;;;5046093;28;20424;-41
2021/04/08 10:59:42;;;;;;;8.70;5.40;;;8.60;81.50;;;;;;5051183;28;20483;-40
2021/04/08 11:02:17;;;;;;;5.83;4.83;;;8.50;81.00;;;;;;5063741;28;20898;-42
2021/04/08 11:04:43;;;;;;;5.30;4.80;;;8.40;81.20;;;;;;5045632;28;20954;-43
2021/04/08 11:07:08;;;;;;;6.97;5.30;;;8.40;83.40;;;;;;5051242;28;20404;-41
2021/04/08 11:09:34;;;;;;;5.00;4.60;;;8.50;84.20;;;;;;5052831;28;20184;-43
2021/04/08 11:12:15;;;;;;;5.33;4.57;;;8.20;84.90;;;;;;5045629;28;20209;-45
2021/04/08 11:14:51;;;;;;;9.13;5.17;;;8.30;83.10;;;;;;5048731;28;20200;-43
2021/04/08 11:17:17;;;;;;;5.83;5.33;;;8.50;82.30;;;;;;5057367;28;20507;-41
2021/04/08 11:19:43;;;;;;;5.83;4.80;;;8.30;82.70;;;;;;5045154;28;20464;-45
2021/04/08 11:22:11;;;;;;;7.93;5.57;;;8.40;83.50;;;;;;5048932;28;20431;-44
2021/04/08 11:24:38;;;;;;;5.80;5.30;;;8.40;80.80;;;;;;5047556;28;20428;-43
2021/04/08 11:27:04;;;;;;;5.50;5.00;;;8.60;81.10;;;;;;5045761;28;20495;-40
2021/04/08 11:29:29;;;;;;;4.87;4.47;;;8.90;77.60;;;;;;5046013;28;20494;-41
2021/04/08 11:32:05;;;;;;;5.13;4.50;;;8.80;79.50;;;;;;5057068;28;20486;-44
2021/04/08 11:35:06;;;;;;;5.20;4.63;;;9.00;79.70;;;;;;5057559;28;20209;-42
2021/04/08 11:37:36;;;;;;;4.87;4.20;;;9.00;77.60;;;;;;5058973;28;20516;-43
2021/04/08 11:40:08;;;;;;;5.03;4.53;;;8.80;76.50;;;;;;5047445;28;20792;-46
2021/04/08 11:42:38;;;;;;;4.03;3.73;;;8.80;77.10;;;;;;5048953;28;20503;-45
2021/04/08 11:45:25;;;;;;;5.03;4.63;;;8.50;76.50;;;;;;5058976;28;20793;-42
2021/04/08 11:47:58;;;;;;;7.43;6.10;;;8.50;77.80;;;;;;5051389;28;20461;-44
2021/04/08 11:50:35;;;;;;;6.23;5.60;;;8.80;75.50;;;;;;5052546;28;20177;-41
2021/04/08 11:53:06;;;;;;;6.60;5.80;;;9.00;76.10;;;;;;5055897;28;20462;-42
2021/04/08 11:55:47;;;;;;;8.80;5.93;;;9.00;76.90;;;;;;5050873;28;20494;-42
2021/04/08 11:58:29;;;;;;;5.47;5.03;;;9.40;75.20;;;;;;5048792;28;20572;-44
2021/04/08 12:01:10;;;;;;;9.10;5.40;;;9.60;73.60;;;;;;5049318;28;20490;-44
2021/04/08 12:03:41;;;;;;;6.23;5.20;;;9.70;75.30;;;;;;5059622;28;20413;-41
2021/04/08 12:06:15;;;;;;;5.47;4.93;;;9.70;74.10;;;;;;5047336;28;20420;-42
2021/04/08 12:08:52;;;;;;;6.80;5.40;;;9.70;72.50;;;;;;5055043;28;20428;-43
2021/04/08 12:11:22;;;;;;;5.83;5.17;;;9.60;71.10;;;;;;5047713;28;20428;-43
2021/04/08 12:14:05;;;;;;;6.73;4.97;;;9.40;71.40;;;;;;5048233;28;20571;-44
2021/04/08 12:16:31;;;;;;;5.70;5.10;;;9.40;72.50;;;;;;5055808;28;20451;-41
2021/04/08 12:18:57;;;;;;;5.43;4.90;;;9.00;73.60;;;;;;5064501;28;20455;-43
2021/04/08 12:21:25;;;;;;;5.77;5.27;;;8.90;73.70;;;;;;5049787;28;20473;-43
2021/04/08 12:23:51;;;;;;;6.67;5.23;;;9.00;72.60;;;;;;5050612;28;20834;-43
2021/04/08 12:26:34;;;;;;;8.10;5.30;;;8.80;72.50;;;;;;5047804;28;20996;-40
2021/04/08 12:29:00;;;;;;;6.87;5.50;;;9.00;75.30;;;;;;5045457;28;20965;-40
2021/04/08 12:31:26;;;;;;;5.57;5.07;;;8.70;70.80;;;;;;5058455;28;20423;-42
2021/04/08 12:33:51;;;;;;;5.83;5.33;;;8.70;73.30;;;;;;5059918;28;20851;-42
2021/04/08 12:36:17;;;;;;;6.00;5.20;;;8.90;75.30;;;;;;5046592;28;20182;-41
2021/04/08 12:38:43;;;;;;;6.20;5.70;;;8.80;71.60;;;;;;5058061;28;20236;-40
2021/04/08 12:41:09;;;;;;;5.90;5.40;;;8.70;71.60;;;;;;5046947;28;20573;-41
2021/04/08 12:43:35;;;;;;;5.77;5.27;;;8.60;72.60;;;;;;5047600;28;20185;-40
2021/04/08 12:46:02;;;;;;;7.93;5.73;;;8.50;73.20;;;;;;5047218;28;20481;-43
2021/04/08 12:48:29;;;;;;;6.53;5.93;;;8.60;72.80;;;;;;5054250;28;20549;-41
2021/04/08 12:50:56;;;;;;;6.30;5.47;;;8.70;72.10;;;;;;5047846;28;20490;-41
2021/04/08 12:53:25;;;;;;;6.30;5.67;;;8.70;72.10;;;;;;5049492;28;20420;-40
2021/04/08 12:55:52;;;;;;;9.70;5.40;;;8.90;70.90;;;;;;5047586;28;20428;-43
2021/04/08 12:58:18;;;;;;;6.83;6.00;;;8.70;70.60;;;;;;5047226;28;20456;-42
2021/04/08 13:00:45;;;;;;;7.33;6.60;;;8.70;71.90;;;;;;5052707;28;21434;-42
2021/04/08 13:03:11;;;;;;;6.67;6.07;;;8.80;71.90;;;;;;5052801;28;20414;-47
2021/04/08 13:05:38;;;;;;;7.03;6.40;;;9.10;72.50;;;;;;5050219;28;20910;-42
2021/04/08 13:08:05;;;;;;;7.13;6.40;;;9.10;73.30;;;;;;5047134;28;20244;-42